Silver, Texas
Current Conditions -  °F | °C
As of 2:55 PM on Tuesday 21 Oct 2014 (Local Time) from KSWW Reporting Station
Clear Clear  
Wind Chill: 25°   Ceiling: Unl
Heat Index: 26°   Visibility: 10mi
Dew Point:   Wind: 8mph
Humidity: 33%   Direction: 100°E
Pressure: 30.08"   Gusts: NA
Location:  32.07°N, 100.68°W
Report Text: KSWW 211955Z AUTO 10007KT 10SM CLR 26/08 A3008 RMK AO2 T02550083
Loading
Personal Weather Stations






























Interactive Weather Map
Tropical Storm Tracking
New forecast layout! Learn more

10-Day Weather Forecast

Advertisements
Track Severe Weather on mobile